Time;durP1;ratioP1;P1;durP2;ratioP2;P2;SDS_P1;SDS_P2;PMS_P1;PMS_P2;Temp;Humidity;BMP_temperature;BMP_pressure;BME280_temperature;BME280_humidity;BME280_pressure;Samples;Min_cycle;Max_cycle;Signal;HPM_P1;HPM_P2
2023/12/14 00:01:14;;;;;;;11.57;9.03;;;4.10;92.30;;;;;;4978109;28;20307;-86
2023/12/14 00:03:46;;;;;;;11.47;8.60;;;4.10;92.30;;;;;;4996174;28;20666;-87
2023/12/14 00:06:12;;;;;;;8.97;8.07;;;4.10;92.30;;;;;;4978757;28;20204;-86
2023/12/14 00:08:38;;;;;;;15.83;14.43;;;4.10;92.10;;;;;;4995236;28;20205;-85
2023/12/14 00:11:05;;;;;;;16.60;15.33;;;4.10;91.90;;;;;;4995588;28;20200;-85
2023/12/14 00:13:30;;;;;;;11.90;7.57;;;4.20;91.80;;;;;;4978088;28;20665;-87
2023/12/14 00:15:56;;;;;;;8.77;7.87;;;4.20;91.80;;;;;;4995698;28;20178;-86
2023/12/14 00:18:21;;;;;;;11.97;8.20;;;4.20;91.90;;;;;;4995620;28;20256;-86
2023/12/14 00:20:48;;;;;;;10.83;7.30;;;4.20;91.80;;;;;;4994053;28;20180;-85
2023/12/14 00:23:13;;;;;;;10.90;7.67;;;4.20;91.80;;;;;;4993923;28;20322;-86
2023/12/14 00:25:39;;;;;;;8.10;7.37;;;4.20;91.80;;;;;;4993494;28;20229;-86
2023/12/14 00:28:04;;;;;;;9.87;7.57;;;4.20;91.80;;;;;;4995031;28;20264;-85
2023/12/14 00:30:30;;;;;;;8.63;7.80;;;4.20;91.70;;;;;;4977260;28;20210;-86
2023/12/14 00:32:55;;;;;;;8.90;8.00;;;4.20;91.70;;;;;;4993958;28;20185;-86
2023/12/14 00:35:21;;;;;;;11.00;7.27;;;4.20;91.70;;;;;;4993711;28;20178;-86
2023/12/14 00:37:46;;;;;;;10.30;7.13;;;4.30;91.60;;;;;;4993756;28;20630;-86
2023/12/14 00:40:12;;;;;;;9.90;7.43;;;4.20;91.60;;;;;;4993649;28;20205;-85
2023/12/14 00:42:38;;;;;;;11.37;8.83;;;4.20;91.70;;;;;;4993552;28;20244;-86
2023/12/14 00:45:03;;;;;;;16.07;14.73;;;4.20;91.50;;;;;;4994739;28;20557;-85
2023/12/14 00:47:29;;;;;;;17.23;15.70;;;4.20;91.50;;;;;;4977221;28;20180;-85
2023/12/14 00:49:54;;;;;;;16.20;15.00;;;4.30;91.40;;;;;;4977344;28;20222;-86
2023/12/14 00:52:20;;;;;;;15.60;14.07;;;4.20;91.50;;;;;;4995247;28;20219;-86
2023/12/14 00:54:45;;;;;;;16.17;14.60;;;4.10;91.60;;;;;;4994527;28;20185;-86
2023/12/14 00:57:11;;;;;;;15.67;14.43;;;4.00;91.60;;;;;;4977013;28;20180;-86
2023/12/14 00:59:36;;;;;;;15.90;14.27;;;4.00;91.70;;;;;;4976978;28;20292;-85
2023/12/14 01:02:02;;;;;;;15.83;14.53;;;4.00;91.60;;;;;;4994515;28;20243;-86
2023/12/14 01:04:27;;;;;;;16.63;14.90;;;4.00;91.70;;;;;;4977421;28;20287;-85
2023/12/14 01:06:53;;;;;;;16.23;14.97;;;4.00;91.60;;;;;;4993218;28;20188;-85
2023/12/14 01:09:18;;;;;;;15.37;14.13;;;4.10;91.70;;;;;;4976614;28;20225;-86
2023/12/14 01:11:44;;;;;;;15.10;13.97;;;4.10;91.70;;;;;;4976894;28;20606;-86
2023/12/14 01:14:10;;;;;;;14.30;13.10;;;4.10;91.70;;;;;;4977082;28;20181;-86
2023/12/14 01:16:35;;;;;;;15.60;14.37;;;4.10;91.70;;;;;;4977203;28;20723;-85
2023/12/14 01:19:01;;;;;;;16.47;15.20;;;4.10;91.80;;;;;;4993062;28;20198;-86
2023/12/14 01:21:26;;;;;;;16.30;15.03;;;4.20;91.80;;;;;;4992960;28;20196;-86
2023/12/14 01:23:52;;;;;;;11.97;7.43;;;4.20;91.60;;;;;;4993993;28;20203;-85
2023/12/14 01:26:18;;;;;;;9.57;7.23;;;4.20;91.60;;;;;;4993296;28;20184;-86
2023/12/14 01:28:43;;;;;;;16.07;14.53;;;4.20;91.60;;;;;;4992780;28;20213;-86
2023/12/14 01:31:09;;;;;;;15.47;14.37;;;4.30;91.60;;;;;;4976993;28;20184;-86
2023/12/14 01:33:34;;;;;;;17.97;16.37;;;4.20;91.60;;;;;;4994218;28;20674;-86
2023/12/14 01:36:00;;;;;;;8.67;7.77;;;4.30;91.40;;;;;;4994621;28;20657;-86
2023/12/14 01:38:25;;;;;;;13.30;8.23;;;4.30;91.40;;;;;;4993228;28;20192;-85
2023/12/14 01:40:51;;;;;;;15.97;14.67;;;4.30;91.30;;;;;;4994359;28;20182;-85
2023/12/14 01:43:16;;;;;;;17.37;15.87;;;4.30;91.30;;;;;;4976805;28;20205;-85
2023/12/14 01:45:42;;;;;;;18.37;15.90;;;4.30;91.30;;;;;;4976747;28;20192;-86
2023/12/14 01:48:07;;;;;;;9.43;7.60;;;4.30;91.40;;;;;;4992965;28;20220;-85
2023/12/14 01:50:33;;;;;;;8.37;7.57;;;4.30;91.20;;;;;;4993088;28;20685;-86
2023/12/14 01:52:59;;;;;;;8.07;7.27;;;4.30;91.30;;;;;;4992719;28;20671;-85
2023/12/14 01:55:25;;;;;;;8.37;7.37;;;4.30;91.30;;;;;;4992681;28;20178;-85
2023/12/14 01:57:51;;;;;;;7.80;7.10;;;4.30;91.40;;;;;;4976535;28;20180;-86
2023/12/14 02:00:38;;;;;;;8.90;8.00;;;4.30;91.40;;;;;;4993347;28;20707;-86
2023/12/14 02:03:04;;;;;;;8.23;7.37;;;4.30;91.30;;;;;;4976516;28;20236;-85
2023/12/14 02:05:30;;;;;;;12.27;6.90;;;4.30;91.20;;;;;;4993922;28;20593;-85
2023/12/14 02:07:56;;;;;;;9.67;7.07;;;4.30;91.30;;;;;;4992597;28;20196;-87
2023/12/14 02:10:22;;;;;;;8.87;6.30;;;4.30;91.40;;;;;;4992954;28;20223;-86
2023/12/14 02:12:47;;;;;;;13.37;6.73;;;4.30;91.30;;;;;;4992718;28;20174;-86
2023/12/14 02:15:13;;;;;;;11.47;7.57;;;4.30;91.40;;;;;;4992531;28;20224;-85
2023/12/14 02:17:38;;;;;;;8.50;7.00;;;4.30;91.50;;;;;;4994288;28;20653;-85
2023/12/14 02:20:05;;;;;;;16.83;14.77;;;4.30;91.60;;;;;;4993988;28;20221;-85
2023/12/14 02:22:51;;;;;;;16.07;14.53;;;4.30;91.60;;;;;;4976345;28;20196;-86
2023/12/14 02:25:18;;;;;;;15.37;14.07;;;4.30;91.70;;;;;;4993932;28;20206;-86
2023/12/14 02:27:44;;;;;;;15.30;14.00;;;4.30;91.70;;;;;;4994041;28;20170;-85
2023/12/14 02:30:10;;;;;;;15.73;14.40;;;4.30;91.70;;;;;;4993860;28;20278;-86
2023/12/14 02:32:36;;;;;;;15.43;14.07;;;4.30;91.60;;;;;;4993605;28;20181;-86
2023/12/14 02:35:02;;;;;;;14.53;13.30;;;4.30;91.70;;;;;;4994044;28;20181;-85
2023/12/14 02:37:27;;;;;;;14.97;13.60;;;4.30;91.80;;;;;;4977610;28;20232;-86
2023/12/14 02:39:53;;;;;;;14.47;13.27;;;4.30;91.90;;;;;;4976784;28;20202;-86
2023/12/14 02:42:19;;;;;;;14.47;13.17;;;4.30;91.80;;;;;;4994392;28;20673;-86
2023/12/14 02:44:44;;;;;;;15.97;14.37;;;4.30;91.90;;;;;;4976401;28;20192;-86
2023/12/14 02:47:10;;;;;;;15.93;14.20;;;4.30;92.00;;;;;;4976724;28;20182;-86
2023/12/14 02:49:35;;;;;;;15.23;13.83;;;4.30;91.80;;;;;;4995982;28;20214;-86
2023/12/14 02:52:01;;;;;;;14.57;13.47;;;4.30;91.90;;;;;;4997455;28;20538;-86
2023/12/14 02:54:26;;;;;;;16.57;13.53;;;4.30;91.90;;;;;;4979893;28;20216;-86
2023/12/14 02:56:52;;;;;;;13.17;12.00;;;4.30;91.90;;;;;;4980816;28;20253;-86
2023/12/14 02:59:17;;;;;;;11.93;8.07;;;4.30;91.80;;;;;;4997720;28;20198;-86
2023/12/14 03:01:43;;;;;;;13.03;7.73;;;4.30;91.80;;;;;;4996099;28;20189;-86
2023/12/14 03:04:08;;;;;;;15.47;14.23;;;4.30;91.80;;;;;;4996200;28;20615;-86
2023/12/14 03:06:34;;;;;;;16.13;14.83;;;4.30;91.80;;;;;;4997566;28;20180;-85
2023/12/14 03:09:00;;;;;;;14.50;10.73;;;4.30;91.90;;;;;;4979420;28;20775;-85
2023/12/14 03:11:26;;;;;;;7.40;6.57;;;4.30;91.90;;;;;;4979955;28;20181;-86
2023/12/14 03:13:51;;;;;;;10.07;6.97;;;4.30;91.80;;;;;;4996013;28;20177;-87
2023/12/14 03:16:18;;;;;;;16.27;14.77;;;4.30;91.80;;;;;;4979747;28;20178;-86
2023/12/14 03:18:44;;;;;;;17.37;15.83;;;4.30;91.80;;;;;;4997155;28;20756;-86
2023/12/14 03:21:10;;;;;;;9.53;8.10;;;4.30;91.70;;;;;;4979736;28;20216;-87
2023/12/14 03:23:35;;;;;;;16.43;8.70;;;4.30;91.70;;;;;;4979696;28;20200;-86
2023/12/14 03:26:01;;;;;;;8.57;7.70;;;4.30;91.70;;;;;;4979278;28;20221;-85
2023/12/14 03:28:27;;;;;;;10.87;7.57;;;4.30;91.60;;;;;;4979383;28;20237;-85
2023/12/14 03:30:53;;;;;;;9.27;8.37;;;4.30;91.50;;;;;;4995504;28;20271;-85
2023/12/14 03:33:19;;;;;;;10.47;8.17;;;4.30;91.20;;;;;;4979294;28;20720;-86
2023/12/14 03:35:46;;;;;;;10.07;8.73;;;4.30;91.30;;;;;;4996863;28;20553;-86
2023/12/14 03:38:13;;;;;;;9.53;8.63;;;4.30;91.30;;;;;;4996899;28;20173;-85
2023/12/14 03:40:39;;;;;;;10.53;8.53;;;4.30;91.30;;;;;;4979403;28;20707;-85
2023/12/14 03:43:05;;;;;;;12.00;8.60;;;4.30;91.20;;;;;;4979480;28;20181;-86
2023/12/14 03:45:30;;;;;;;16.77;8.90;;;4.30;91.10;;;;;;4995858;28;20272;-86
2023/12/14 03:47:56;;;;;;;10.40;9.03;;;4.30;91.10;;;;;;4995382;28;20189;-87
2023/12/14 03:50:22;;;;;;;9.87;8.73;;;4.30;91.20;;;;;;4995504;28;20775;-86
2023/12/14 03:52:48;;;;;;;17.97;16.30;;;4.30;91.20;;;;;;4996496;28;20174;-86
2023/12/14 03:55:15;;;;;;;18.63;16.90;;;4.30;91.20;;;;;;4995203;28;20181;-86
2023/12/14 03:57:40;;;;;;;18.30;16.90;;;4.30;91.20;;;;;;4996301;28;20291;-85
2023/12/14 04:00:16;;;;;;;20.50;17.80;;;4.30;91.30;;;;;;4994791;28;20308;-86
2023/12/14 04:02:42;;;;;;;18.77;16.93;;;4.30;91.30;;;;;;4996671;28;20538;-86
2023/12/14 04:05:09;;;;;;;19.47;18.07;;;4.30;91.10;;;;;;4978860;28;20187;-86
2023/12/14 04:07:41;;;;;;;18.90;17.30;;;4.30;91.00;;;;;;4978669;28;20264;-86
2023/12/14 04:10:08;;;;;;;19.27;17.37;;;4.30;91.00;;;;;;4978394;28;20230;-86
2023/12/14 04:12:38;;;;;;;19.60;18.03;;;4.30;91.10;;;;;;4979055;28;20176;-87
2023/12/14 04:15:05;;;;;;;17.37;15.77;;;4.30;91.10;;;;;;4978595;28;20177;-86
2023/12/14 04:17:31;;;;;;;18.40;16.87;;;4.30;91.10;;;;;;4996327;28;20201;-86
2023/12/14 04:19:56;;;;;;;20.70;18.67;;;4.30;91.10;;;;;;4996149;28;20232;-86
2023/12/14 04:22:22;;;;;;;21.10;19.27;;;4.30;91.10;;;;;;4978621;28;20259;-86
2023/12/14 04:24:48;;;;;;;20.77;19.00;;;4.30;91.10;;;;;;4978378;28;20653;-86
2023/12/14 04:27:14;;;;;;;22.57;20.67;;;4.20;91.10;;;;;;4996176;28;20181;-86
2023/12/14 04:29:40;;;;;;;18.90;17.30;;;4.20;91.10;;;;;;4995918;28;20206;-86
2023/12/14 04:32:05;;;;;;;13.50;10.50;;;4.20;91.10;;;;;;4978174;28;20208;-86
2023/12/14 04:34:31;;;;;;;12.93;9.83;;;4.20;91.10;;;;;;4978319;28;20181;-86
2023/12/14 04:36:57;;;;;;;19.70;17.83;;;4.20;91.00;;;;;;4995877;28;20245;-86
2023/12/14 04:39:24;;;;;;;20.43;18.37;;;4.20;91.00;;;;;;4978178;28;20243;-86
2023/12/14 04:41:50;;;;;;;22.33;20.30;;;4.20;91.10;;;;;;4978536;28;20212;-86
2023/12/14 04:44:16;;;;;;;10.77;9.50;;;4.10;91.20;;;;;;4994191;28;20608;-86
2023/12/14 04:46:42;;;;;;;11.50;10.33;;;4.10;91.20;;;;;;4994761;28;20549;-86
2023/12/14 04:49:07;;;;;;;19.83;18.20;;;4.10;91.20;;;;;;4978200;28;20212;-86
2023/12/14 04:51:33;;;;;;;21.67;19.30;;;4.10;91.20;;;;;;4995676;28;20197;-86
2023/12/14 04:53:58;;;;;;;21.47;19.43;;;4.10;91.30;;;;;;4978136;28;20174;-86
2023/12/14 04:56:24;;;;;;;18.53;10.67;;;4.10;91.30;;;;;;4995767;28;20208;-86
2023/12/14 04:58:49;;;;;;;15.10;10.03;;;4.10;91.30;;;;;;4978099;28;20200;-86
2023/12/14 05:01:15;;;;;;;13.27;10.70;;;4.00;91.30;;;;;;4978029;28;20212;-85
2023/12/14 05:03:40;;;;;;;12.37;10.50;;;4.10;91.30;;;;;;4977793;28;20585;-86
2023/12/14 05:06:07;;;;;;;14.23;10.77;;;4.00;91.30;;;;;;4994143;28;20180;-86
2023/12/14 05:08:32;;;;;;;12.03;10.53;;;4.10;91.30;;;;;;4995169;28;20209;-86
2023/12/14 05:10:58;;;;;;;18.37;11.80;;;4.10;91.40;;;;;;4993889;28;20292;-86
2023/12/14 05:13:24;;;;;;;11.70;10.60;;;4.00;91.40;;;;;;4995407;28;20184;-86
2023/12/14 05:15:51;;;;;;;21.70;12.10;;;4.00;91.40;;;;;;4977715;28;20180;-86
2023/12/14 05:18:17;;;;;;;13.10;11.57;;;4.00;91.50;;;;;;4977465;28;20661;-85
2023/12/14 05:20:42;;;;;;;15.23;11.73;;;4.00;91.50;;;;;;4994757;28;20207;-86
2023/12/14 05:23:08;;;;;;;16.50;11.80;;;4.00;91.60;;;;;;4977727;28;20181;-86
2023/12/14 05:25:34;;;;;;;21.83;19.87;;;4.00;91.70;;;;;;4995035;28;20205;-86
2023/12/14 05:27:59;;;;;;;21.23;19.23;;;4.00;91.70;;;;;;4977303;28;20248;-86
2023/12/14 05:30:25;;;;;;;21.00;18.90;;;4.00;91.70;;;;;;4978430;28;20677;-86
2023/12/14 05:32:50;;;;;;;22.80;20.73;;;4.00;91.70;;;;;;4978995;28;20178;-87
2023/12/14 05:35:16;;;;;;;22.20;19.90;;;4.00;91.80;;;;;;4980550;28;20174;-86
2023/12/14 05:37:41;;;;;;;22.97;20.80;;;3.90;91.90;;;;;;4981177;28;20177;-86
2023/12/14 05:40:10;;;;;;;23.20;20.77;;;4.00;91.90;;;;;;4998693;28;20197;-86
2023/12/14 05:42:35;;;;;;;22.23;19.67;;;3.90;92.00;;;;;;4998131;28;20323;-85
2023/12/14 05:45:01;;;;;;;20.13;18.07;;;3.90;92.00;;;;;;4999136;28;20216;-87
2023/12/14 05:47:27;;;;;;;22.03;19.80;;;4.00;92.10;;;;;;4981254;28;20185;-85
2023/12/14 05:49:52;;;;;;;22.33;20.03;;;3.90;92.00;;;;;;4999670;28;20213;-86
2023/12/14 05:52:18;;;;;;;19.67;17.67;;;3.90;92.00;;;;;;4981684;28;20178;-86
2023/12/14 05:54:44;;;;;;;20.30;18.40;;;3.90;92.00;;;;;;4983367;28;20171;-86
2023/12/14 05:57:12;;;;;;;21.80;18.23;;;3.90;92.00;;;;;;4981676;28;20514;-86
2023/12/14 05:59:38;;;;;;;19.17;17.23;;;3.90;91.90;;;;;;4981844;28;20747;-86
2023/12/14 06:02:04;;;;;;;19.33;17.63;;;3.90;91.90;;;;;;4981986;28;20263;-86
2023/12/14 06:04:30;;;;;;;15.33;12.17;;;3.90;91.90;;;;;;4998890;28;20171;-86
2023/12/14 06:06:56;;;;;;;16.17;11.37;;;3.90;92.00;;;;;;4980883;28;20203;-86
2023/12/14 06:09:29;;;;;;;18.83;17.03;;;3.90;92.00;;;;;;4980930;28;20221;-86
2023/12/14 06:11:54;;;;;;;21.10;19.10;;;4.00;91.90;;;;;;4980946;28;20183;-86
2023/12/14 06:14:20;;;;;;;23.97;21.77;;;4.00;91.90;;;;;;4998195;28;20188;-86
2023/12/14 06:16:45;;;;;;;13.53;11.33;;;4.00;92.00;;;;;;4981316;28;20192;-86
2023/12/14 06:19:11;;;;;;;19.87;12.40;;;3.90;91.90;;;;;;4997024;28;20204;-86
2023/12/14 06:21:37;;;;;;;23.57;21.07;;;4.00;91.90;;;;;;4980653;28;20181;-86
2023/12/14 06:24:02;;;;;;;25.23;21.77;;;4.00;91.80;;;;;;4998766;28;20196;-86
2023/12/14 06:26:28;;;;;;;24.30;21.97;;;3.90;91.80;;;;;;5001739;28;20181;-85
2023/12/14 06:28:53;;;;;;;13.40;11.37;;;3.90;91.80;;;;;;5002120;28;20680;-86
2023/12/14 06:31:21;;;;;;;13.90;11.57;;;4.00;91.80;;;;;;5001539;28;20177;-85
2023/12/14 06:33:48;;;;;;;21.83;19.93;;;3.90;91.80;;;;;;5000524;28;20173;-86
2023/12/14 06:36:16;;;;;;;20.87;18.87;;;4.00;91.90;;;;;;5002049;28;20174;-85
2023/12/14 06:38:42;;;;;;;23.43;21.27;;;4.00;91.90;;;;;;5001397;28;20252;-85
2023/12/14 06:41:08;;;;;;;20.17;12.60;;;4.00;91.90;;;;;;5001096;28;20541;-86
2023/12/14 06:43:34;;;;;;;14.43;12.47;;;4.00;91.90;;;;;;5000651;28;20180;-85
2023/12/14 06:45:59;;;;;;;16.13;11.93;;;4.00;91.90;;;;;;5001293;28;20180;-86
2023/12/14 06:48:25;;;;;;;21.93;12.90;;;4.00;92.00;;;;;;5000961;28;20552;-85
2023/12/14 06:50:50;;;;;;;20.93;13.73;;;3.90;91.90;;;;;;5001136;28;20174;-86
2023/12/14 06:53:16;;;;;;;16.83;12.47;;;4.00;91.90;;;;;;5000389;28;20204;-85
2023/12/14 06:55:42;;;;;;;16.73;13.23;;;4.00;91.90;;;;;;5000956;28;20184;-86
2023/12/14 06:58:11;;;;;;;15.47;13.47;;;4.00;91.90;;;;;;5000983;28;20638;-87
2023/12/14 07:00:37;;;;;;;16.07;13.50;;;4.00;91.90;;;;;;5001051;28;20289;-85
2023/12/14 07:03:03;;;;;;;17.97;13.50;;;4.00;91.90;;;;;;5001026;28;20173;-86
2023/12/14 07:05:29;;;;;;;18.37;13.40;;;4.00;91.90;;;;;;5000332;28;20187;-87
2023/12/14 07:07:56;;;;;;;19.03;13.53;;;4.00;91.90;;;;;;5000231;28;20281;-86
2023/12/14 07:10:22;;;;;;;16.10;13.37;;;4.00;91.90;;;;;;5000349;28;20672;-86
2023/12/14 07:12:47;;;;;;;25.43;21.13;;;4.00;91.80;;;;;;5000335;28;20281;-86
2023/12/14 07:15:13;;;;;;;25.70;19.10;;;4.00;91.80;;;;;;5000432;28;20354;-85
2023/12/14 07:17:38;;;;;;;24.30;17.63;;;4.00;91.80;;;;;;4999705;28;20539;-86
2023/12/14 07:20:06;;;;;;;22.37;17.10;;;4.00;91.80;;;;;;4999255;28;20229;-88
2023/12/14 07:22:31;;;;;;;21.57;19.10;;;4.00;91.80;;;;;;4999458;28;20188;-86
2023/12/14 07:24:57;;;;;;;24.27;21.58;;;4.00;91.90;;;;;;4996567;28;20453;-85
2023/12/14 07:27:22;;;;;;;27.17;22.33;;;4.00;91.90;;;;;;4997362;28;20261;-86
2023/12/14 07:29:48;;;;;;;26.07;23.67;;;4.00;92.00;;;;;;4997152;28;20220;-86
2023/12/14 07:32:13;;;;;;;26.13;23.23;;;4.00;92.00;;;;;;4996995;28;20190;-87
2023/12/14 07:34:39;;;;;;;24.67;22.33;;;4.00;92.00;;;;;;4996777;28;20181;-86
2023/12/14 07:37:05;;;;;;;25.70;23.03;;;4.00;91.90;;;;;;4996531;28;20269;-86
2023/12/14 07:39:31;;;;;;;24.23;22.03;;;4.00;91.90;;;;;;4997442;28;20234;-86
2023/12/14 07:41:56;;;;;;;25.47;22.80;;;4.00;91.90;;;;;;4996602;28;20535;-85
2023/12/14 07:44:24;;;;;;;23.40;21.20;;;4.00;91.80;;;;;;4995343;28;20181;-86
2023/12/14 07:46:50;;;;;;;24.37;21.27;;;4.00;91.80;;;;;;4996819;28;20760;-86
2023/12/14 07:49:20;;;;;;;23.47;21.27;;;4.00;91.80;;;;;;4996333;28;20237;-85
2023/12/14 07:51:46;;;;;;;21.83;15.00;;;4.00;91.80;;;;;;4996391;28;20173;-86
2023/12/14 07:54:11;;;;;;;18.47;14.37;;;4.00;91.80;;;;;;4996227;28;20177;-85
2023/12/14 07:56:37;;;;;;;24.60;22.03;;;4.00;91.90;;;;;;4996414;28;20178;-86
2023/12/14 07:59:06;;;;;;;24.67;22.20;;;4.00;91.90;;;;;;4996557;28;20206;-85
2023/12/14 08:01:31;;;;;;;25.77;23.07;;;4.00;91.90;;;;;;4997028;28;20249;-85
2023/12/14 08:03:57;;;;;;;22.53;15.23;;;4.00;91.90;;;;;;4996723;28;20185;-85
2023/12/14 08:06:23;;;;;;;19.20;14.77;;;4.00;91.80;;;;;;4979243;28;20185;-85
2023/12/14 08:08:48;;;;;;;24.63;21.17;;;4.00;91.90;;;;;;4996377;28;20214;-85
2023/12/14 08:11:14;;;;;;;24.93;22.30;;;4.00;91.90;;;;;;4996272;28;20184;-86
2023/12/14 08:13:40;;;;;;;26.77;23.40;;;4.00;92.00;;;;;;4995923;28;20177;-86
2023/12/14 08:16:06;;;;;;;23.57;15.57;;;4.00;91.90;;;;;;4996330;28;20208;-86
2023/12/14 08:18:32;;;;;;;21.50;15.13;;;4.00;92.00;;;;;;4996325;28;20694;-85
2023/12/14 08:20:58;;;;;;;23.13;15.80;;;4.00;92.10;;;;;;4996529;28;20219;-86
2023/12/14 08:23:27;;;;;;;19.20;14.37;;;4.00;92.10;;;;;;4995520;28;20173;-86
2023/12/14 08:25:53;;;;;;;20.57;15.40;;;4.00;92.20;;;;;;4995391;28;20205;-86
2023/12/14 08:28:21;;;;;;;18.13;15.13;;;3.90;92.10;;;;;;4995732;28;20261;-85
2023/12/14 08:30:46;;;;;;;18.00;15.13;;;4.00;92.20;;;;;;4996119;28;20239;-85
2023/12/14 08:33:12;;;;;;;23.10;16.67;;;4.00;92.20;;;;;;4996488;28;20641;-86
2023/12/14 08:35:37;;;;;;;19.63;16.70;;;4.00;92.20;;;;;;4997076;28;20232;-86
2023/12/14 08:38:03;;;;;;;21.10;17.27;;;4.00;92.30;;;;;;4995805;28;20220;-86
2023/12/14 08:40:28;;;;;;;20.53;16.50;;;4.00;92.30;;;;;;4995996;28;20201;-86
2023/12/14 08:42:54;;;;;;;22.93;16.63;;;4.00;92.50;;;;;;4995849;28;20177;-86
2023/12/14 08:45:20;;;;;;;26.57;23.80;;;4.00;92.50;;;;;;4996015;28;20645;-86
2023/12/14 08:47:45;;;;;;;25.63;23.23;;;4.00;92.70;;;;;;4995250;28;20185;-86
2023/12/14 08:50:11;;;;;;;25.70;22.90;;;4.00;92.80;;;;;;4995712;28;20210;-86
2023/12/14 08:52:36;;;;;;;28.27;24.13;;;3.90;92.90;;;;;;4995988;28;20185;-86
2023/12/14 08:55:02;;;;;;;26.97;24.13;;;3.90;92.90;;;;;;4995867;28;20178;-86
2023/12/14 08:57:27;;;;;;;25.10;22.33;;;3.90;93.00;;;;;;4995839;28;20219;-86
2023/12/14 08:59:53;;;;;;;24.30;21.43;;;3.90;93.10;;;;;;4996121;28;20267;-84
2023/12/14 09:02:18;;;;;;;25.13;21.23;;;3.90;93.20;;;;;;4996620;28;20216;-85
2023/12/14 09:04:44;;;;;;;28.30;22.53;;;3.80;93.30;;;;;;4996751;28;20273;-90
2023/12/14 09:07:09;;;;;;;27.10;23.47;;;3.90;93.40;;;;;;4996205;28;20181;-86
2023/12/14 09:09:35;;;;;;;24.97;22.40;;;3.90;93.40;;;;;;4994545;28;20217;-85
2023/12/14 09:12:02;;;;;;;28.20;22.07;;;3.90;93.30;;;;;;4995537;28;20201;-85
2023/12/14 09:14:29;;;;;;;29.77;21.63;;;4.00;93.30;;;;;;4994511;28;20174;-85
2023/12/14 09:16:55;;;;;;;26.67;22.60;;;3.90;93.20;;;;;;4994523;28;20538;-86
2023/12/14 09:19:20;;;;;;;25.57;22.13;;;3.80;93.30;;;;;;4994139;28;20197;-85
2023/12/14 09:21:46;;;;;;;26.93;23.33;;;3.90;93.40;;;;;;4994646;28;20235;-86
2023/12/14 09:24:12;;;;;;;19.63;15.83;;;3.90;93.40;;;;;;4994537;28;20228;-86
2023/12/14 09:26:37;;;;;;;19.47;14.53;;;3.80;93.40;;;;;;4994350;28;20718;-85
2023/12/14 09:29:03;;;;;;;24.27;20.20;;;3.90;93.40;;;;;;4994428;28;20236;-85
2023/12/14 09:31:28;;;;;;;23.60;20.63;;;3.90;93.40;;;;;;4994702;28;20170;-85
2023/12/14 09:33:54;;;;;;;25.10;21.93;;;3.90;93.40;;;;;;4994768;28;20174;-85
2023/12/14 09:36:19;;;;;;;23.90;15.00;;;3.90;93.40;;;;;;4994615;28;20188;-86
2023/12/14 09:38:45;;;;;;;16.63;14.37;;;4.00;93.50;;;;;;4994472;28;20212;-87
2023/12/14 09:41:11;;;;;;;22.60;20.30;;;4.00;93.50;;;;;;4994338;28;20185;-87
2023/12/14 09:43:37;;;;;;;24.07;19.50;;;4.00;93.50;;;;;;4994030;28;20181;-87
2023/12/14 09:46:03;;;;;;;22.60;20.30;;;4.00;93.50;;;;;;4994057;28;20178;-86
2023/12/14 09:48:29;;;;;;;17.03;13.77;;;4.00;93.50;;;;;;4996185;28;20204;-85
2023/12/14 09:50:55;;;;;;;16.63;14.43;;;3.90;93.40;;;;;;4998168;28;20178;-85
2023/12/14 09:53:21;;;;;;;19.97;13.47;;;4.00;93.30;;;;;;4998826;28;20188;-84
2023/12/14 09:55:46;;;;;;;17.77;14.33;;;4.00;93.20;;;;;;4999035;28;20499;-84
2023/12/14 09:58:12;;;;;;;17.60;14.90;;;3.90;93.20;;;;;;4997082;28;20204;-90
2023/12/14 10:00:42;;;;;;;17.63;14.27;;;4.00;93.20;;;;;;4983252;28;20559;-85
2023/12/14 10:03:22;;;;;;;18.60;14.13;;;4.10;93.30;;;;;;4999043;28;20162;-86
2023/12/14 10:05:48;;;;;;;22.80;13.87;;;4.10;93.30;;;;;;4998780;28;20196;-86
2023/12/14 10:08:16;;;;;;;16.80;14.00;;;4.10;93.20;;;;;;4999295;28;20189;-85
2023/12/14 10:10:42;;;;;;;15.60;13.93;;;4.00;93.20;;;;;;4999457;28;20206;-86
2023/12/14 10:13:07;;;;;;;14.67;13.13;;;4.10;93.00;;;;;;4999120;28;20719;-86
2023/12/14 10:15:49;;;;;;;13.43;12.17;;;4.00;92.90;;;;;;5004529;28;20174;-86
2023/12/14 10:18:24;;;;;;;21.03;19.03;;;4.10;92.70;;;;;;5000173;28;20517;-86
2023/12/14 10:20:53;;;;;;;20.83;18.67;;;4.00;92.60;;;;;;5001999;28;20158;-91
2023/12/14 10:23:19;;;;;;;20.73;18.77;;;4.00;92.50;;;;;;5005543;28;20169;-95
2023/12/14 10:25:46;;;;;;;20.13;18.27;;;4.10;92.50;;;;;;5005596;28;20177;-94
2023/12/14 10:28:16;;;;;;;20.23;18.53;;;4.10;92.40;;;;;;5005611;28;20153;-94
2023/12/14 10:30:41;;;;;;;22.13;19.77;;;4.00;92.30;;;;;;5005309;28;20264;-94
2023/12/14 10:33:07;;;;;;;22.13;20.20;;;4.10;92.40;;;;;;5005485;28;20181;-93
2023/12/14 10:35:33;;;;;;;19.00;16.97;;;4.10;92.40;;;;;;5005497;28;20169;-94
2023/12/14 10:38:05;;;;;;;17.43;15.83;;;4.10;92.40;;;;;;5005329;28;20172;-94
2023/12/14 10:40:32;;;;;;;19.00;17.37;;;4.10;92.40;;;;;;5005327;28;20232;-94
2023/12/14 10:43:03;;;;;;;17.77;14.77;;;4.10;92.40;;;;;;5005240;28;20176;-94
2023/12/14 10:45:32;;;;;;;20.57;15.57;;;4.10;92.50;;;;;;5005000;28;20176;-93
2023/12/14 10:48:00;;;;;;;16.07;14.57;;;4.20;92.50;;;;;;5004478;28;20197;-94
2023/12/14 10:50:28;;;;;;;19.63;15.30;;;4.20;92.50;;;;;;5004907;28;20208;-95
2023/12/14 10:52:54;;;;;;;23.27;17.03;;;4.20;92.30;;;;;;4998777;28;20272;-88
2023/12/14 10:55:28;;;;;;;20.30;15.83;;;4.20;92.30;;;;;;5016469;28;20208;-93
2023/12/14 10:57:55;;;;;;;19.10;16.10;;;4.30;92.30;;;;;;5005044;28;20169;-94
2023/12/14 11:00:21;;;;;;;17.37;13.00;;;4.30;92.30;;;;;;5004818;28;20196;-93
2023/12/14 11:02:47;;;;;;;14.40;12.90;;;4.20;92.20;;;;;;5004463;28;20170;-93
2023/12/14 11:05:22;;;;;;;19.37;16.90;;;4.20;92.30;;;;;;5004563;28;20188;-93
2023/12/14 11:07:54;;;;;;;19.23;16.97;;;4.20;92.20;;;;;;5004490;28;20213;-94
2023/12/14 11:10:26;;;;;;;19.57;17.57;;;4.30;92.20;;;;;;4987226;28;20303;-88
2023/12/14 11:12:57;;;;;;;14.93;12.93;;;4.20;92.00;;;;;;5006284;28;20196;-93
2023/12/14 11:15:23;;;;;;;14.53;12.80;;;4.30;92.20;;;;;;5004152;28;20176;-94
2023/12/14 11:59:20;;;;;;;21.10;19.17;;;4.50;91.50;;;;;;4820565;26;20454;-92
2023/12/14 12:01:56;;;;;;;22.90;20.63;;;4.50;91.60;;;;;;4965994;28;20246;-89
2023/12/14 12:04:23;;;;;;;23.27;20.87;;;4.70;91.50;;;;;;4982864;28;20178;-92
2023/12/14 12:06:51;;;;;;;22.60;20.63;;;4.60;90.90;;;;;;4962388;28;20171;-92
2023/12/14 12:09:42;;;;;;;21.70;19.63;;;4.70;90.90;;;;;;4964934;28;20281;-92
2023/12/14 12:12:09;;;;;;;21.93;19.80;;;4.70;90.90;;;;;;4967348;28;20171;-92
2023/12/14 12:14:36;;;;;;;22.63;20.23;;;4.70;90.70;;;;;;4968994;28;20182;-92
2023/12/14 12:17:04;;;;;;;22.83;20.57;;;4.70;90.60;;;;;;4971887;28;20174;-92
2023/12/14 12:19:30;;;;;;;22.93;20.77;;;4.80;90.60;;;;;;4972216;28;20202;-92
2023/12/14 12:21:56;;;;;;;21.57;19.70;;;4.80;90.50;;;;;;4966317;28;20191;-93
2023/12/14 12:24:22;;;;;;;23.07;20.90;;;4.80;90.20;;;;;;4967096;28;20185;-92
2023/12/14 12:26:47;;;;;;;24.00;21.27;;;4.80;90.10;;;;;;4962270;28;20179;-92
2023/12/14 12:29:13;;;;;;;16.67;14.83;;;4.70;89.80;;;;;;4965168;28;20221;-94
2023/12/14 12:31:39;;;;;;;17.03;14.90;;;4.70;89.80;;;;;;4968174;28;20209;-93
2023/12/14 12:34:05;;;;;;;15.63;14.13;;;4.80;90.10;;;;;;4979956;28;20175;-92
2023/12/14 12:36:31;;;;;;;17.30;15.17;;;4.90;90.40;;;;;;4973128;28;20333;-92
2023/12/14 12:38:57;;;;;;;23.63;21.47;;;5.00;90.20;;;;;;4969684;28;20191;-92
2023/12/14 12:41:22;;;;;;;24.30;22.17;;;5.00;90.20;;;;;;4973021;28;20190;-93
2023/12/14 12:43:48;;;;;;;24.70;22.77;;;5.00;89.90;;;;;;4964191;28;20181;-92
2023/12/14 12:46:13;;;;;;;26.73;24.27;;;5.00;89.60;;;;;;4963340;28;20183;-93
2023/12/14 12:48:39;;;;;;;25.63;23.23;;;5.00;89.70;;;;;;4969306;28;20187;-94
2023/12/14 12:51:05;;;;;;;17.50;15.67;;;5.00;89.60;;;;;;4969653;28;20178;-92
2023/12/14 12:53:32;;;;;;;18.77;15.03;;;5.00;89.50;;;;;;4960849;28;20190;-93
2023/12/14 12:55:58;;;;;;;25.83;23.57;;;5.00;89.50;;;;;;4959074;28;20189;-92
2023/12/14 12:58:23;;;;;;;24.70;22.70;;;4.90;89.40;;;;;;4957983;28;20191;-91
2023/12/14 13:00:49;;;;;;;25.10;22.87;;;4.90;89.40;;;;;;4958426;28;20542;-92
2023/12/14 13:03:14;;;;;;;17.10;15.40;;;4.80;89.20;;;;;;4959512;28;20288;-92
2023/12/14 13:05:40;;;;;;;17.10;14.30;;;4.80;89.20;;;;;;4958659;28;20670;-92
2023/12/14 13:08:06;;;;;;;15.33;13.73;;;4.80;89.10;;;;;;4958162;28;20182;-93
2023/12/14 13:10:32;;;;;;;14.43;13.03;;;4.70;89.20;;;;;;4962682;28;20301;-93
2023/12/14 13:12:57;;;;;;;14.63;13.20;;;4.70;89.50;;;;;;4974080;28;20214;-92
2023/12/14 13:15:26;;;;;;;15.27;13.90;;;4.60;89.50;;;;;;4975172;28;20183;-91